createdAt,value
2017-10-16T00:00:26.388Z,15.70
2017-10-16T00:01:33.143Z,13.00
2017-10-16T00:02:39.898Z,14.10
2017-10-16T00:03:46.622Z,10.40
2017-10-16T00:04:53.441Z,13.50
2017-10-16T00:06:00.254Z,14.50
2017-10-16T00:07:07.003Z,11.80
2017-10-16T00:08:13.757Z,11.20
2017-10-16T00:09:20.631Z,12.10
2017-10-16T00:10:27.390Z,16.30
2017-10-16T00:11:34.162Z,12.60
2017-10-16T00:12:40.938Z,13.40
2017-10-16T00:13:47.657Z,13.00
2017-10-16T00:14:54.431Z,11.60
2017-10-16T00:16:01.163Z,10.70
2017-10-16T00:17:07.897Z,9.90
2017-10-16T00:18:14.632Z,15.00
2017-10-16T00:19:21.403Z,10.70
2017-10-16T00:20:28.177Z,10.70
2017-10-16T00:21:35.127Z,13.80
2017-10-16T00:22:41.853Z,12.00
2017-10-16T00:23:48.597Z,16.00
2017-10-16T00:24:55.353Z,11.20
2017-10-16T00:26:02.089Z,10.70
2017-10-16T00:27:08.821Z,11.90
2017-10-16T00:28:15.589Z,13.80
2017-10-16T00:29:22.298Z,15.70
2017-10-16T00:30:29.132Z,11.30
2017-10-16T00:31:36.051Z,9.20
2017-10-16T00:32:42.858Z,11.10
2017-10-16T00:33:49.654Z,13.40
2017-10-16T00:34:56.454Z,11.20
2017-10-16T00:36:03.240Z,11.10
2017-10-16T00:37:09.998Z,14.40
2017-10-16T00:38:16.806Z,12.40
2017-10-16T00:39:23.534Z,10.30
2017-10-16T00:40:30.382Z,14.20
2017-10-16T00:41:37.110Z,10.50
2017-10-16T00:42:44.217Z,9.70
2017-10-16T00:43:50.982Z,10.50
2017-10-16T00:44:57.829Z,10.90
2017-10-16T00:46:04.680Z,17.40
2017-10-16T00:47:11.545Z,11.40
2017-10-16T00:48:18.325Z,13.00
2017-10-16T00:49:25.090Z,12.40
2017-10-16T00:50:31.902Z,12.90
2017-10-16T00:51:38.649Z,13.70
2017-10-16T00:52:45.397Z,11.50
2017-10-16T00:53:52.198Z,11.20
2017-10-16T00:54:58.913Z,16.90
2017-10-16T00:56:05.685Z,14.00
2017-10-16T00:57:12.654Z,11.90
2017-10-16T00:58:19.417Z,15.70
2017-10-16T00:59:26.274Z,15.30
2017-10-16T01:00:33.148Z,12.50
2017-10-16T01:01:40.005Z,11.90
2017-10-16T01:02:46.782Z,13.10
2017-10-16T01:03:53.554Z,13.40
2017-10-16T01:05:00.344Z,15.70
2017-10-16T01:06:07.110Z,12.60
2017-10-16T01:07:13.913Z,14.40
2017-10-16T01:08:20.829Z,12.40
2017-10-16T01:09:27.573Z,13.20
2017-10-16T01:10:34.474Z,11.80
2017-10-16T01:11:41.241Z,11.10
2017-10-16T01:12:48.077Z,12.00
2017-10-16T01:13:54.854Z,11.80
2017-10-16T01:15:01.643Z,15.60
2017-10-16T01:16:08.477Z,12.90
2017-10-16T01:17:15.286Z,12.50
2017-10-16T01:18:22.069Z,12.90
2017-10-16T01:19:28.835Z,10.90
2017-10-16T01:20:35.584Z,11.80
2017-10-16T01:21:42.383Z,12.10
2017-10-16T01:22:49.218Z,11.50
2017-10-16T01:23:55.935Z,10.50
2017-10-16T01:25:02.694Z,13.50
2017-10-16T01:26:09.494Z,14.50
2017-10-16T01:27:16.271Z,12.60
2017-10-16T01:28:23.041Z,10.70
2017-10-16T01:29:29.886Z,15.80
2017-10-16T01:30:36.689Z,15.80
2017-10-16T01:31:43.537Z,10.90
2017-10-16T01:32:50.405Z,11.90
2017-10-16T01:33:57.278Z,13.70
2017-10-16T01:35:04.126Z,13.60
2017-10-16T01:36:10.987Z,18.20
2017-10-16T01:37:17.854Z,16.00
2017-10-16T01:38:24.832Z,17.80
2017-10-16T01:39:31.705Z,16.20
2017-10-16T01:40:38.541Z,14.90
2017-10-16T01:41:45.377Z,13.90
2017-10-16T01:42:52.338Z,16.00
2017-10-16T01:43:59.090Z,14.60
2017-10-16T01:45:05.846Z,17.30
2017-10-16T01:46:12.718Z,16.80
2017-10-16T01:47:19.562Z,13.70
2017-10-16T01:48:26.407Z,19.20
2017-10-16T01:49:33.233Z,18.40
2017-10-16T01:50:40.008Z,12.70
2017-10-16T01:51:46.858Z,14.00
2017-10-16T01:52:53.745Z,14.90
2017-10-16T01:54:00.642Z,13.60
2017-10-16T01:55:07.445Z,14.50
2017-10-16T01:56:14.218Z,15.00
2017-10-16T01:57:21.062Z,13.00
2017-10-16T01:58:27.933Z,13.30
2017-10-16T01:59:34.806Z,17.70
2017-10-16T02:00:41.682Z,13.80
2017-10-16T02:01:48.546Z,18.30
2017-10-16T02:02:55.401Z,14.60
2017-10-16T02:04:02.134Z,21.20
2017-10-16T02:05:08.886Z,13.60
2017-10-16T02:06:15.629Z,13.40
2017-10-16T02:07:22.378Z,15.60
2017-10-16T02:08:29.113Z,14.40
2017-10-16T02:09:35.910Z,13.70
2017-10-16T02:10:42.702Z,16.30
2017-10-16T02:11:49.426Z,16.40
2017-10-16T02:12:56.209Z,15.40
2017-10-16T02:14:02.941Z,15.60
2017-10-16T02:15:09.682Z,14.50
2017-10-16T02:16:16.437Z,12.10
2017-10-16T02:17:23.578Z,13.00
2017-10-16T02:18:29.834Z,16.20
2017-10-16T02:19:36.665Z,15.50
2017-10-16T02:20:43.425Z,16.70
2017-10-16T02:21:50.170Z,14.70
2017-10-16T02:22:57.002Z,15.90
2017-10-16T02:24:03.726Z,11.90
2017-10-16T02:25:10.555Z,15.10
2017-10-16T02:26:17.487Z,16.20
2017-10-16T02:27:24.273Z,16.20
2017-10-16T02:28:31.161Z,14.80
2017-10-16T02:29:37.893Z,14.70
2017-10-16T02:30:44.615Z,18.50
2017-10-16T02:31:51.431Z,14.50
2017-10-16T02:32:58.217Z,15.50
2017-10-16T02:34:04.994Z,16.60
2017-10-16T02:35:11.787Z,15.40
2017-10-16T02:36:18.603Z,14.80
2017-10-16T02:37:25.346Z,13.30
2017-10-16T02:38:32.170Z,16.80
2017-10-16T02:39:38.918Z,17.70
2017-10-16T02:40:45.663Z,14.60
2017-10-16T02:41:52.390Z,15.40
2017-10-16T02:42:59.160Z,16.50
2017-10-16T02:44:05.889Z,17.80
2017-10-16T02:45:12.630Z,17.10
2017-10-16T02:46:19.452Z,13.80
2017-10-16T02:47:26.177Z,18.70
2017-10-16T02:48:32.946Z,13.70
2017-10-16T02:49:39.799Z,14.70
2017-10-16T02:50:46.530Z,14.50
2017-10-16T02:51:53.322Z,13.20
2017-10-16T02:53:00.245Z,15.90
2017-10-16T02:54:06.983Z,15.40
2017-10-16T02:55:13.737Z,14.40
2017-10-16T02:56:20.527Z,15.40
2017-10-16T02:57:27.270Z,15.00
2017-10-16T02:58:34.043Z,16.40
2017-10-16T02:59:40.770Z,15.30
2017-10-16T03:00:47.489Z,13.00
2017-10-16T03:01:54.226Z,15.00
2017-10-16T03:03:00.990Z,15.80
2017-10-16T03:04:07.867Z,15.60
2017-10-16T03:05:14.630Z,15.40
2017-10-16T03:06:21.396Z,12.60
2017-10-16T03:07:28.427Z,16.10
2017-10-16T03:08:35.186Z,13.80
2017-10-16T03:09:41.962Z,13.80
2017-10-16T03:10:48.828Z,15.20
2017-10-16T03:11:55.637Z,14.80
2017-10-16T03:13:02.397Z,16.10
2017-10-16T03:14:09.159Z,18.50
2017-10-16T03:15:15.986Z,19.50
2017-10-16T03:16:22.759Z,16.00
2017-10-16T03:17:29.582Z,14.20
2017-10-16T03:18:36.331Z,15.80
2017-10-16T03:19:43.110Z,19.40
2017-10-16T03:20:49.882Z,15.70
2017-10-16T03:21:56.644Z,15.80
2017-10-16T03:23:03.397Z,18.00
2017-10-16T03:24:10.181Z,15.50
2017-10-16T03:25:17.014Z,18.60
2017-10-16T03:26:23.752Z,19.60
2017-10-16T03:27:30.509Z,19.80
2017-10-16T03:28:37.262Z,16.70
2017-10-16T03:29:44.014Z,15.50
2017-10-16T03:30:50.834Z,18.00
2017-10-16T03:31:57.602Z,15.60
2017-10-16T03:33:04.368Z,16.60
2017-10-16T03:34:11.266Z,20.60
2017-10-16T03:35:18.090Z,18.10
2017-10-16T03:36:25.205Z,19.60
2017-10-16T03:37:31.965Z,16.70
2017-10-16T03:38:38.734Z,18.70
2017-10-16T03:39:45.581Z,17.40
2017-10-16T03:40:52.374Z,17.30
2017-10-16T03:41:59.127Z,17.50
2017-10-16T03:43:05.909Z,16.80
2017-10-16T03:44:12.936Z,15.30
2017-10-16T03:45:19.678Z,17.20
2017-10-16T03:46:26.433Z,16.20
2017-10-16T03:47:33.206Z,17.10
2017-10-16T03:48:40.017Z,17.80
2017-10-16T03:49:46.832Z,12.50
2017-10-16T03:50:53.699Z,16.50
2017-10-16T03:52:00.465Z,16.30
2017-10-16T03:53:07.230Z,14.20
2017-10-16T03:54:14.091Z,14.80
2017-10-16T03:55:20.877Z,16.00
2017-10-16T03:56:27.677Z,11.90
2017-10-16T03:57:34.423Z,13.80
2017-10-16T03:58:41.202Z,12.20
2017-10-16T03:59:47.961Z,13.90
2017-10-16T04:00:54.809Z,14.50
2017-10-16T04:02:01.902Z,12.20
2017-10-16T04:03:08.701Z,17.50
2017-10-16T04:04:15.483Z,12.80
2017-10-16T04:05:22.268Z,12.10
2017-10-16T04:06:29.086Z,13.80
2017-10-16T04:07:35.855Z,14.70
2017-10-16T04:08:42.605Z,14.00
2017-10-16T04:09:49.370Z,15.40
2017-10-16T04:10:56.140Z,13.00
2017-10-16T04:12:02.925Z,15.10
2017-10-16T04:13:09.698Z,14.30
2017-10-16T04:14:16.469Z,17.20
2017-10-16T04:15:23.313Z,15.40
2017-10-16T04:16:30.062Z,15.50
2017-10-16T04:17:36.845Z,16.00
2017-10-16T04:18:43.643Z,17.70
2017-10-16T04:19:50.423Z,15.20
2017-10-16T04:20:57.548Z,16.20
2017-10-16T04:22:04.298Z,16.10
2017-10-16T04:23:11.089Z,15.50
2017-10-16T04:24:17.857Z,17.40
2017-10-16T04:25:24.615Z,15.50
2017-10-16T04:26:31.510Z,22.80
2017-10-16T04:27:38.326Z,14.90
2017-10-16T04:28:45.170Z,15.60
2017-10-16T04:29:51.932Z,12.00
2017-10-16T04:30:58.710Z,14.20
2017-10-16T04:32:05.938Z,16.60
2017-10-16T04:33:12.674Z,18.10
2017-10-16T04:34:19.534Z,16.10
2017-10-16T04:35:26.374Z,16.00
2017-10-16T04:36:33.182Z,15.60
2017-10-16T04:37:39.926Z,14.10
2017-10-16T04:38:46.719Z,21.70
2017-10-16T04:39:53.510Z,17.00
2017-10-16T04:41:00.298Z,16.40
2017-10-16T04:42:07.062Z,14.80
2017-10-16T04:43:13.839Z,13.70
2017-10-16T04:44:20.602Z,14.50
2017-10-16T04:45:27.430Z,13.20
2017-10-16T04:46:34.232Z,14.30
2017-10-16T04:47:41.030Z,13.80
2017-10-16T04:48:47.783Z,11.70
2017-10-16T04:49:54.627Z,13.20
2017-10-16T04:51:01.392Z,12.70
2017-10-16T04:52:08.182Z,11.30
2017-10-16T04:53:14.990Z,13.60
2017-10-16T04:54:21.746Z,13.80
2017-10-16T04:55:28.507Z,13.10
2017-10-16T04:56:35.302Z,12.60
2017-10-16T04:57:42.085Z,14.60
2017-10-16T04:58:48.825Z,14.70
2017-10-16T04:59:55.564Z,14.00
2017-10-16T05:01:02.294Z,13.80
2017-10-16T05:02:09.173Z,14.40
2017-10-16T05:03:15.975Z,16.30
2017-10-16T05:04:23.023Z,15.30
2017-10-16T05:05:29.829Z,13.10
2017-10-16T05:06:36.606Z,14.10
2017-10-16T05:07:43.443Z,14.20
2017-10-16T05:08:50.224Z,15.80
2017-10-16T05:09:57.037Z,15.40
2017-10-16T05:11:03.835Z,19.80
2017-10-16T05:12:10.686Z,19.50
2017-10-16T05:13:17.452Z,17.80
2017-10-16T05:14:24.218Z,19.00
2017-10-16T05:15:31.055Z,16.80
2017-10-16T05:16:37.842Z,16.60
2017-10-16T05:17:44.650Z,17.70
2017-10-16T05:18:51.432Z,17.10
2017-10-16T05:19:58.510Z,15.10
2017-10-16T05:21:05.427Z,18.60
2017-10-16T05:22:12.261Z,18.60
2017-10-16T05:23:19.070Z,20.80
2017-10-16T05:24:25.870Z,18.70
2017-10-16T05:25:32.662Z,19.20
2017-10-16T05:26:39.474Z,20.80
2017-10-16T05:27:46.351Z,17.20
2017-10-16T05:28:53.141Z,16.90
2017-10-16T05:29:59.966Z,17.20
2017-10-16T05:31:06.734Z,18.50
2017-10-16T05:32:13.546Z,13.70
2017-10-16T05:33:20.467Z,16.30
2017-10-16T05:34:27.364Z,15.80
2017-10-16T05:35:34.175Z,15.60
2017-10-16T05:36:40.965Z,14.40
2017-10-16T05:37:47.761Z,16.80
2017-10-16T05:38:54.646Z,14.00
2017-10-16T05:40:01.437Z,16.70
2017-10-16T05:41:08.215Z,17.40
2017-10-16T05:42:15.001Z,18.30
2017-10-16T05:43:21.988Z,16.00
2017-10-16T05:44:28.785Z,17.10
2017-10-16T05:45:35.578Z,18.50
2017-10-16T05:46:42.474Z,17.40
2017-10-16T05:47:49.506Z,17.80
2017-10-16T05:48:56.299Z,15.30
2017-10-16T05:50:03.179Z,18.30
2017-10-16T05:51:10.004Z,16.70
2017-10-16T05:52:16.898Z,18.80
2017-10-16T05:53:23.754Z,18.20
2017-10-16T05:54:30.641Z,20.40
2017-10-16T05:55:37.474Z,15.50
2017-10-16T05:56:44.389Z,17.60
2017-10-16T05:57:51.197Z,19.10
2017-10-16T05:58:57.998Z,16.80
2017-10-16T06:00:04.798Z,17.60
2017-10-16T06:01:11.610Z,19.30
2017-10-16T06:02:18.498Z,17.50
2017-10-16T06:03:25.297Z,18.00
2017-10-16T06:04:32.090Z,22.10
2017-10-16T06:05:38.881Z,21.10
2017-10-16T06:06:45.746Z,23.80
2017-10-16T06:07:52.609Z,26.10
2017-10-16T06:08:59.587Z,23.30
2017-10-16T06:10:06.461Z,19.60
2017-10-16T06:11:13.283Z,17.60
2017-10-16T06:12:20.071Z,17.80
2017-10-16T06:13:26.902Z,16.80
2017-10-16T06:14:33.734Z,19.30
2017-10-16T06:15:40.578Z,16.40
2017-10-16T06:16:47.531Z,18.40
2017-10-16T06:17:54.419Z,17.30
2017-10-16T06:19:01.282Z,17.20
2017-10-16T06:20:08.337Z,18.40
2017-10-16T06:21:15.170Z,18.90
2017-10-16T06:22:21.976Z,20.50
2017-10-16T06:23:28.904Z,21.10
2017-10-16T06:24:35.738Z,18.50
2017-10-16T06:25:42.551Z,21.60
2017-10-16T06:26:49.344Z,17.60
2017-10-16T06:27:56.213Z,16.80
2017-10-16T06:29:03.150Z,15.80
2017-10-16T06:30:09.999Z,16.90
2017-10-16T06:31:16.794Z,17.20
2017-10-16T06:32:23.598Z,14.80
2017-10-16T06:33:30.435Z,15.90
2017-10-16T06:34:37.210Z,15.60
2017-10-16T06:35:43.995Z,16.40
2017-10-16T06:36:50.807Z,15.10
2017-10-16T06:37:57.719Z,16.10
2017-10-16T06:39:04.550Z,14.60
2017-10-16T06:40:11.462Z,13.50
2017-10-16T06:41:18.262Z,15.10
2017-10-16T06:42:25.039Z,16.90
2017-10-16T06:43:31.916Z,16.10
2017-10-16T06:44:38.738Z,17.40
2017-10-16T06:45:45.469Z,20.10
2017-10-16T06:46:52.327Z,20.50
2017-10-16T06:47:59.190Z,19.00
2017-10-16T06:49:06.137Z,26.90
2017-10-16T06:50:12.921Z,38.50
2017-10-16T06:51:19.735Z,36.20
2017-10-16T06:52:26.482Z,26.20
2017-10-16T06:53:33.533Z,34.70
2017-10-16T06:54:40.302Z,34.60
2017-10-16T06:55:47.048Z,23.90
2017-10-16T06:56:53.834Z,29.30
2017-10-16T06:58:00.638Z,24.50
2017-10-16T06:59:07.490Z,24.30
2017-10-16T07:00:14.298Z,18.90
2017-10-16T07:01:21.063Z,21.70
2017-10-16T07:02:27.849Z,19.30
2017-10-16T07:03:34.612Z,18.30
2017-10-16T07:04:41.430Z,19.40
2017-10-16T07:05:48.154Z,34.30
2017-10-16T07:06:54.902Z,44.20
2017-10-16T07:08:01.654Z,24.10
2017-10-16T07:09:08.403Z,18.40
2017-10-16T07:10:15.249Z,17.80
2017-10-16T07:11:21.966Z,20.90
2017-10-16T07:12:28.874Z,18.20
2017-10-16T07:13:35.613Z,18.40
2017-10-16T07:14:42.454Z,19.70
2017-10-16T07:15:49.263Z,23.20
2017-10-16T07:16:56.151Z,18.70
2017-10-16T07:18:02.874Z,23.80
2017-10-16T07:19:09.622Z,20.40
2017-10-16T07:20:16.398Z,22.50
2017-10-16T07:21:23.130Z,21.00
2017-10-16T07:22:29.942Z,22.30
2017-10-16T07:23:36.686Z,23.80
2017-10-16T07:24:43.423Z,21.50
2017-10-16T07:25:50.189Z,23.00
2017-10-16T07:26:57.062Z,23.50
2017-10-16T07:28:03.777Z,23.80
2017-10-16T07:29:10.533Z,21.10
2017-10-16T07:30:17.460Z,21.10
2017-10-16T07:31:24.237Z,16.80
2017-10-16T07:32:31.084Z,17.60
2017-10-16T07:33:37.816Z,18.60
2017-10-16T07:34:44.598Z,17.50
2017-10-16T07:35:51.358Z,15.10
2017-10-16T07:36:58.114Z,15.80
2017-10-16T07:38:04.841Z,16.40
2017-10-16T07:39:11.602Z,16.80
2017-10-16T07:40:18.440Z,18.70
2017-10-16T07:41:25.250Z,17.10
2017-10-16T07:42:32.223Z,19.70
2017-10-16T07:43:38.946Z,16.60
2017-10-16T07:44:45.735Z,14.80
2017-10-16T07:45:52.441Z,16.10
2017-10-16T07:46:59.214Z,14.40
2017-10-16T07:48:06.030Z,13.30
2017-10-16T07:49:12.818Z,13.30
2017-10-16T07:50:19.578Z,13.00
2017-10-16T07:51:26.503Z,13.20
2017-10-16T07:52:33.255Z,14.50
2017-10-16T07:53:40.010Z,15.10
2017-10-16T07:54:46.790Z,13.40
2017-10-16T07:55:53.563Z,15.40
2017-10-16T07:57:00.319Z,13.40
2017-10-16T07:58:07.125Z,17.80
2017-10-16T07:59:13.890Z,13.50
2017-10-16T08:00:20.654Z,13.00
2017-10-16T08:01:27.438Z,18.00
2017-10-16T08:02:34.219Z,15.30
2017-10-16T08:03:46.093Z,16.20
2017-10-16T08:04:47.914Z,17.50
2017-10-16T08:05:54.718Z,15.90
2017-10-16T08:07:01.453Z,15.90
2017-10-16T08:08:08.226Z,14.90
2017-10-16T08:09:14.963Z,16.70
2017-10-16T08:10:21.713Z,16.70
2017-10-16T08:11:28.461Z,18.20
2017-10-16T08:12:35.204Z,16.80
2017-10-16T08:13:42.005Z,21.90
2017-10-16T08:14:48.740Z,19.50
2017-10-16T08:15:55.884Z,23.10
2017-10-16T08:17:02.659Z,23.30
2017-10-16T08:18:09.475Z,21.00
2017-10-16T08:19:16.210Z,19.10
2017-10-16T08:20:22.971Z,22.20
2017-10-16T08:21:29.762Z,20.20
2017-10-16T08:22:36.506Z,18.30
2017-10-16T08:23:43.346Z,18.60
2017-10-16T08:24:50.164Z,21.00
2017-10-16T08:25:57.088Z,22.50
2017-10-16T08:27:03.977Z,22.00
2017-10-16T08:28:10.837Z,20.30
2017-10-16T08:29:17.658Z,19.90
2017-10-16T08:30:24.477Z,22.30
2017-10-16T08:31:31.278Z,22.20
2017-10-16T08:32:38.033Z,21.60
2017-10-16T08:33:44.910Z,21.20
2017-10-16T08:34:51.705Z,20.30
2017-10-16T08:35:58.470Z,23.80
2017-10-16T08:37:05.362Z,22.20
2017-10-16T08:38:12.470Z,25.90
2017-10-16T08:39:19.260Z,23.10
2017-10-16T08:40:26.130Z,23.20
2017-10-16T08:41:32.998Z,26.10
2017-10-16T08:42:40.173Z,25.50
2017-10-16T08:43:47.001Z,26.90
2017-10-16T08:44:53.822Z,24.80
2017-10-16T08:46:00.665Z,30.00
2017-10-16T08:47:07.515Z,26.10
2017-10-16T08:48:14.406Z,23.60
2017-10-16T08:49:26.702Z,27.20
2017-10-16T08:50:28.116Z,24.90
2017-10-16T08:51:34.938Z,24.30
2017-10-16T08:52:41.874Z,25.20
2017-10-16T08:53:48.774Z,22.80
2017-10-16T08:54:55.561Z,27.20
2017-10-16T08:56:02.381Z,25.00
2017-10-16T08:57:09.317Z,26.70
2017-10-16T08:58:16.175Z,29.20
2017-10-16T08:59:23.154Z,23.00
2017-10-16T09:00:29.986Z,25.00
2017-10-16T09:01:36.915Z,31.70
2017-10-16T09:02:43.887Z,26.40
2017-10-16T09:03:50.730Z,27.10
2017-10-16T09:04:57.606Z,22.60
2017-10-16T09:06:04.409Z,27.70
2017-10-16T09:07:11.354Z,27.30
2017-10-16T09:08:18.219Z,28.10
2017-10-16T09:09:25.054Z,23.30
2017-10-16T09:10:31.793Z,27.90
2017-10-16T09:11:38.722Z,24.90
2017-10-16T09:12:45.607Z,24.10
2017-10-16T09:13:52.543Z,27.10
2017-10-16T09:14:59.401Z,27.00
2017-10-16T09:16:06.256Z,25.30
2017-10-16T09:17:13.069Z,29.10
2017-10-16T09:18:20.001Z,27.30
2017-10-16T09:19:26.797Z,27.60
2017-10-16T09:20:33.710Z,31.80
2017-10-16T09:21:40.543Z,32.60
2017-10-16T09:22:47.474Z,31.30
2017-10-16T09:23:54.405Z,39.80
2017-10-16T09:25:01.258Z,39.00
2017-10-16T09:26:08.220Z,38.80
2017-10-16T09:27:15.078Z,36.60
2017-10-16T09:28:21.909Z,35.60
2017-10-16T09:29:28.718Z,39.50
2017-10-16T09:30:35.507Z,48.20
2017-10-16T09:31:42.355Z,43.00
2017-10-16T09:32:49.217Z,37.80
2017-10-16T09:33:55.970Z,43.40
2017-10-16T09:35:02.737Z,38.30
2017-10-16T09:36:09.595Z,40.60
2017-10-16T09:37:16.437Z,43.70
2017-10-16T09:38:23.590Z,46.00
2017-10-16T09:39:30.841Z,44.40
2017-10-16T09:40:37.257Z,46.80
2017-10-16T09:41:44.081Z,45.50
2017-10-16T09:42:50.949Z,49.40
2017-10-16T09:43:57.815Z,48.50
2017-10-16T09:45:04.662Z,50.90
2017-10-16T09:46:11.618Z,59.10
2017-10-16T09:47:18.509Z,59.10
2017-10-16T09:48:25.362Z,59.40
2017-10-16T09:49:32.207Z,65.40
2017-10-16T09:50:39.006Z,59.60
2017-10-16T09:51:45.769Z,62.10
2017-10-16T09:52:52.550Z,64.00
2017-10-16T09:53:59.322Z,67.70
2017-10-16T09:55:06.110Z,57.10
2017-10-16T09:56:12.906Z,62.70
2017-10-16T09:57:19.713Z,75.00
2017-10-16T09:58:26.538Z,54.20
2017-10-16T09:59:33.427Z,63.70
2017-10-16T10:00:40.278Z,60.20
2017-10-16T10:01:47.113Z,64.10
2017-10-16T10:02:54.110Z,59.00
2017-10-16T10:04:00.845Z,60.40
2017-10-16T10:05:07.742Z,56.30
2017-10-16T10:06:14.660Z,64.30
2017-10-16T10:07:21.495Z,59.90
2017-10-16T10:08:28.362Z,60.00
2017-10-16T10:09:35.336Z,59.70
2017-10-16T10:10:42.200Z,54.40
2017-10-16T10:11:49.019Z,56.80
2017-10-16T10:12:55.861Z,56.20
2017-10-16T10:14:03.017Z,54.70
2017-10-16T10:15:09.798Z,56.00
2017-10-16T10:16:16.750Z,61.10
2017-10-16T10:17:23.629Z,58.80
2017-10-16T10:18:30.370Z,59.80
2017-10-16T10:19:37.201Z,56.30
2017-10-16T10:20:43.960Z,56.70
2017-10-16T10:21:50.691Z,47.50
2017-10-16T10:22:57.453Z,49.50
2017-10-16T10:24:04.247Z,49.30
2017-10-16T10:25:10.965Z,53.90
2017-10-16T10:26:17.758Z,51.70
2017-10-16T10:27:24.483Z,49.40
2017-10-16T10:28:31.205Z,45.00
2017-10-16T10:29:37.933Z,48.00
2017-10-16T10:30:44.637Z,39.20
2017-10-16T10:31:51.339Z,40.40
2017-10-16T10:32:58.133Z,44.90
2017-10-16T10:34:04.898Z,45.60
2017-10-16T10:35:11.630Z,46.60
2017-10-16T10:36:18.593Z,47.80
2017-10-16T10:37:25.310Z,38.50
2017-10-16T10:38:32.314Z,44.70
2017-10-16T10:39:39.070Z,43.60
2017-10-16T10:40:45.804Z,36.80
2017-10-16T10:41:52.571Z,37.60
2017-10-16T10:42:59.313Z,39.30
2017-10-16T10:44:06.068Z,36.20
2017-10-16T10:45:12.838Z,41.10
2017-10-16T10:46:19.581Z,36.10
2017-10-16T10:47:26.338Z,38.50
2017-10-16T10:48:33.257Z,35.10
2017-10-16T10:49:40.055Z,33.60
2017-10-16T10:50:46.838Z,29.60
2017-10-16T10:51:53.597Z,29.30
2017-10-16T10:53:00.336Z,35.30
2017-10-16T10:54:07.142Z,32.90
2017-10-16T10:55:13.941Z,31.70
2017-10-16T10:56:20.782Z,30.30
2017-10-16T10:57:27.548Z,30.30
2017-10-16T10:58:34.629Z,32.00
2017-10-16T10:59:41.497Z,30.10
2017-10-16T11:00:48.289Z,28.50
2017-10-16T11:01:55.134Z,28.70
2017-10-16T11:03:01.958Z,28.80
2017-10-16T11:04:08.770Z,24.30
2017-10-16T11:05:15.629Z,25.90
2017-10-16T11:06:22.710Z,22.90
2017-10-16T11:07:29.454Z,25.40
2017-10-16T11:08:36.241Z,26.20
2017-10-16T11:09:43.061Z,26.00
2017-10-16T11:10:49.828Z,24.70
2017-10-16T11:11:56.670Z,26.50
2017-10-16T11:13:03.426Z,22.80
2017-10-16T11:14:10.185Z,21.10
2017-10-16T11:15:16.994Z,20.00
2017-10-16T11:16:23.866Z,19.10
2017-10-16T11:17:30.673Z,20.30
2017-10-16T11:18:37.474Z,19.70
2017-10-16T11:19:44.343Z,19.40
2017-10-16T11:20:51.192Z,22.30
2017-10-16T11:21:58.041Z,21.40
2017-10-16T11:23:04.865Z,18.20
2017-10-16T11:24:11.825Z,21.10
2017-10-16T11:25:18.593Z,18.50
2017-10-16T11:26:25.432Z,17.60
2017-10-16T11:27:32.211Z,18.20
2017-10-16T11:28:39.022Z,18.60
2017-10-16T11:29:45.796Z,19.90
2017-10-16T11:30:52.626Z,18.30
2017-10-16T11:31:59.395Z,17.90
2017-10-16T11:33:06.222Z,15.60
2017-10-16T11:34:12.953Z,26.90
2017-10-16T11:35:20.025Z,18.00
2017-10-16T11:36:26.868Z,17.40
2017-10-16T11:37:33.650Z,13.10
2017-10-16T11:38:40.500Z,14.20
2017-10-16T11:39:47.303Z,17.90
2017-10-16T11:40:54.072Z,15.50
2017-10-16T11:42:01.008Z,15.20
2017-10-16T11:43:07.905Z,14.20
2017-10-16T11:44:14.767Z,15.00
2017-10-16T11:45:21.617Z,13.30
2017-10-16T11:46:28.462Z,14.60
2017-10-16T11:47:35.281Z,17.30
2017-10-16T11:48:42.111Z,15.10
2017-10-16T11:49:48.975Z,12.90
2017-10-16T11:50:55.813Z,14.10
2017-10-16T11:52:02.682Z,16.70
2017-10-16T11:53:09.501Z,15.80
2017-10-16T11:54:16.257Z,14.30
2017-10-16T11:55:23.061Z,13.40
2017-10-16T11:56:30.044Z,15.70
2017-10-16T11:57:36.936Z,13.20
2017-10-16T11:58:43.785Z,13.30
2017-10-16T11:59:50.646Z,14.20
2017-10-16T12:00:57.474Z,15.60
2017-10-16T12:02:04.421Z,14.60
2017-10-16T12:03:11.297Z,12.30
2017-10-16T12:04:18.238Z,13.50
2017-10-16T12:05:25.162Z,14.70
2017-10-16T12:06:31.993Z,17.00
2017-10-16T12:07:38.871Z,15.40
2017-10-16T12:08:45.787Z,15.70
2017-10-16T12:09:52.646Z,14.40
2017-10-16T12:10:59.580Z,18.50
2017-10-16T12:12:06.466Z,14.60
2017-10-16T12:13:13.277Z,13.70
2017-10-16T12:14:20.161Z,15.10
2017-10-16T12:15:27.037Z,27.40
2017-10-16T12:16:33.873Z,21.50
2017-10-16T12:17:40.746Z,15.40
2017-10-16T12:18:47.655Z,19.20
2017-10-16T12:19:54.450Z,14.40
2017-10-16T12:21:01.281Z,15.90
2017-10-16T12:22:08.180Z,15.00
2017-10-16T12:23:14.998Z,17.80
2017-10-16T12:24:21.898Z,16.50
2017-10-16T12:25:28.729Z,16.60
2017-10-16T12:26:35.601Z,15.60
2017-10-16T12:27:42.721Z,16.00
2017-10-16T12:28:49.554Z,14.90
2017-10-16T12:29:56.414Z,15.80
2017-10-16T12:31:03.210Z,14.50
2017-10-16T12:32:10.054Z,17.90
2017-10-16T12:33:16.878Z,15.90
2017-10-16T12:34:23.737Z,15.00
2017-10-16T12:35:30.641Z,16.20
2017-10-16T12:36:37.467Z,16.20
2017-10-16T12:37:44.339Z,18.30
2017-10-16T12:38:51.197Z,20.40
2017-10-16T12:39:58.026Z,14.10
2017-10-16T12:41:04.898Z,13.60
2017-10-16T12:42:11.741Z,16.70
2017-10-16T12:43:18.622Z,16.50
2017-10-16T12:44:25.471Z,18.00
2017-10-16T12:45:32.422Z,14.40
2017-10-16T12:46:39.241Z,14.90
2017-10-16T12:47:46.127Z,15.50
2017-10-16T12:48:53.007Z,15.40
2017-10-16T12:49:59.901Z,13.60
2017-10-16T12:51:06.754Z,14.80
2017-10-16T12:52:13.614Z,14.00
2017-10-16T12:53:20.470Z,12.70
2017-10-16T12:54:27.314Z,16.00
2017-10-16T12:55:34.145Z,16.90
2017-10-16T12:56:41.033Z,15.70
2017-10-16T12:57:47.913Z,20.20
2017-10-16T12:58:54.767Z,17.50
2017-10-16T13:00:01.658Z,17.80
2017-10-16T13:01:08.462Z,13.70
2017-10-16T13:02:15.238Z,16.40
2017-10-16T13:03:22.225Z,15.90
2017-10-16T13:04:29.051Z,12.80
2017-10-16T13:05:35.877Z,15.90
2017-10-16T13:06:42.767Z,13.50
2017-10-16T13:07:49.574Z,14.80
2017-10-16T13:08:56.402Z,16.40
2017-10-16T13:10:03.370Z,16.30
2017-10-16T13:11:10.549Z,14.70
2017-10-16T13:12:17.077Z,12.80
2017-10-16T13:13:23.962Z,12.60
2017-10-16T13:14:30.807Z,13.30
2017-10-16T13:15:37.670Z,16.80
2017-10-16T13:16:44.545Z,16.20
2017-10-16T13:17:51.554Z,12.10
2017-10-16T13:18:58.454Z,13.10
2017-10-16T13:20:05.359Z,17.50
2017-10-16T13:21:12.207Z,13.50
2017-10-16T13:22:19.499Z,17.30
2017-10-16T13:23:26.290Z,20.40
2017-10-16T13:24:33.121Z,16.60
2017-10-16T13:25:39.985Z,17.40
2017-10-16T13:26:46.834Z,14.50
2017-10-16T13:27:53.737Z,13.70
2017-10-16T13:29:00.637Z,11.80
2017-10-16T13:30:07.442Z,12.20
2017-10-16T13:31:14.346Z,12.80
2017-10-16T13:32:21.205Z,12.90
2017-10-16T13:33:28.045Z,11.70
2017-10-16T13:34:34.929Z,14.30
2017-10-16T13:35:41.777Z,19.00
2017-10-16T13:36:48.695Z,12.00
2017-10-16T13:37:55.587Z,15.10
2017-10-16T13:39:02.471Z,16.20
2017-10-16T13:40:09.594Z,11.90
2017-10-16T13:41:16.446Z,21.80
2017-10-16T13:42:23.361Z,15.40
2017-10-16T13:43:30.273Z,13.50
2017-10-16T13:44:37.167Z,14.90
2017-10-16T13:45:44.149Z,11.40
2017-10-16T13:46:51.114Z,14.50
2017-10-16T13:47:57.961Z,22.70
2017-10-16T13:49:04.910Z,12.80
2017-10-16T13:50:11.877Z,13.10
2017-10-16T13:51:18.754Z,13.80
2017-10-16T13:52:25.622Z,17.60
2017-10-16T13:53:32.522Z,17.60
2017-10-16T13:54:39.385Z,15.80
2017-10-16T13:55:46.238Z,17.50
2017-10-16T13:56:53.124Z,21.30
2017-10-16T13:57:59.999Z,16.30
2017-10-16T13:59:06.859Z,14.30
2017-10-16T14:00:13.741Z,12.80
2017-10-16T14:01:20.586Z,15.50
2017-10-16T14:02:27.453Z,13.30
2017-10-16T14:03:34.386Z,15.90
2017-10-16T14:04:41.281Z,15.00
2017-10-16T14:05:48.166Z,14.30
2017-10-16T14:06:55.041Z,19.40
2017-10-16T14:08:01.971Z,13.80
2017-10-16T14:09:08.842Z,15.30
2017-10-16T14:10:15.745Z,11.50
2017-10-16T14:11:22.598Z,14.00
2017-10-16T14:12:29.635Z,11.80
2017-10-16T14:13:36.510Z,11.80
2017-10-16T14:14:43.351Z,15.30
2017-10-16T14:15:50.208Z,17.10
2017-10-16T14:16:57.075Z,21.10
2017-10-16T14:18:03.948Z,14.80
2017-10-16T14:19:10.869Z,18.10
2017-10-16T14:20:17.712Z,13.40